Time;durP1;ratioP1;P1;durP2;ratioP2;P2;SDS_P1;SDS_P2;PMS_P1;PMS_P2;Temp;Humidity;BMP_temperature;BMP_pressure;BME280_temperature;BME280_humidity;BME280_pressure;Samples;Min_cycle;Max_cycle;Signal;HPM_P1;HPM_P2
2023/07/23 00:01:23;;;;;;;3.50;2.50;;;18.00;51.50;;;;;;5119107;28;20039;-76
2023/07/23 00:03:49;;;;;;;4.50;2.63;;;18.00;51.50;;;;;;5113542;28;20536;-74
2023/07/23 00:06:16;;;;;;;6.85;3.35;;;17.90;51.50;;;;;;5113268;28;20020;-73
2023/07/23 00:08:42;;;;;;;3.47;2.72;;;17.90;51.70;;;;;;5112530;28;20031;-72
2023/07/23 00:11:07;;;;;;;3.17;2.80;;;17.90;51.80;;;;;;5094513;28;20043;-72
2023/07/23 00:13:33;;;;;;;5.15;4.05;;;17.80;51.80;;;;;;5112586;28;20020;-72
2023/07/23 00:15:58;;;;;;;4.32;3.10;;;17.80;51.90;;;;;;5094545;28;20576;-73
2023/07/23 00:18:24;;;;;;;2.88;2.58;;;17.80;52.10;;;;;;5094713;28;20019;-72
2023/07/23 00:20:49;;;;;;;3.80;2.40;;;17.70;52.30;;;;;;5094397;28;20075;-72
2023/07/23 00:23:15;;;;;;;3.63;2.50;;;17.70;52.40;;;;;;5112608;28;20089;-72
2023/07/23 00:25:42;;;;;;;4.15;2.75;;;17.70;52.40;;;;;;5094720;28;20020;-72
2023/07/23 00:28:07;;;;;;;5.20;2.50;;;17.70;52.50;;;;;;5112953;28;20030;-74
2023/07/23 00:30:33;;;;;;;3.00;2.70;;;17.60;52.50;;;;;;5116060;28;20023;-75
2023/07/23 00:32:58;;;;;;;4.10;2.75;;;17.60;52.60;;;;;;5116201;28;20043;-73
2023/07/23 00:35:24;;;;;;;3.53;2.90;;;17.60;53.00;;;;;;5097681;28;20433;-72
2023/07/23 00:37:49;;;;;;;4.75;3.08;;;17.50;53.20;;;;;;5097970;28;20023;-73
2023/07/23 00:40:15;;;;;;;3.55;3.17;;;17.50;53.20;;;;;;5098107;28;20487;-74
2023/07/23 00:42:40;;;;;;;4.15;3.10;;;17.50;53.40;;;;;;5098156;28;20077;-73
2023/07/23 00:45:06;;;;;;;2.95;2.65;;;17.40;53.60;;;;;;5115945;28;20024;-74
2023/07/23 00:47:32;;;;;;;4.50;2.90;;;17.30;53.80;;;;;;5097795;28;20019;-73
2023/07/23 00:49:58;;;;;;;2.70;2.47;;;17.30;53.80;;;;;;5097968;28;20027;-74
2023/07/23 00:52:24;;;;;;;5.25;3.00;;;17.20;54.00;;;;;;5097806;28;20145;-73
2023/07/23 00:54:49;;;;;;;3.53;2.80;;;17.30;54.10;;;;;;5097904;28;20532;-73
2023/07/23 00:57:16;;;;;;;4.15;2.70;;;17.20;54.20;;;;;;5097906;28;20027;-73
2023/07/23 00:59:41;;;;;;;3.38;2.60;;;17.10;54.30;;;;;;5097538;28;20072;-73
2023/07/23 01:02:07;;;;;;;3.22;2.70;;;17.20;54.50;;;;;;5097773;28;20028;-73
2023/07/23 01:04:34;;;;;;;3.20;2.60;;;17.20;54.30;;;;;;5097293;28;20055;-74
2023/07/23 01:07:03;;;;;;;4.38;2.70;;;17.20;54.20;;;;;;5097275;28;20031;-76
2023/07/23 01:09:29;;;;;;;3.13;2.38;;;17.20;54.50;;;;;;5115807;28;20055;-74
2023/07/23 01:11:56;;;;;;;3.53;2.97;;;17.20;54.30;;;;;;5115507;28;20468;-75
2023/07/23 01:14:22;;;;;;;4.95;2.60;;;17.20;54.20;;;;;;5097734;28;20375;-73
2023/07/23 01:16:48;;;;;;;3.22;2.58;;;17.20;54.10;;;;;;5097122;28;20135;-75
2023/07/23 01:19:15;;;;;;;3.75;3.03;;;17.30;54.20;;;;;;5115330;28;20020;-76
2023/07/23 01:21:40;;;;;;;3.33;2.50;;;17.20;54.10;;;;;;5096884;28;20044;-74
2023/07/23 01:24:06;;;;;;;3.33;2.72;;;17.20;54.20;;;;;;5096999;28;20023;-74
2023/07/23 01:26:31;;;;;;;3.17;2.88;;;17.20;54.40;;;;;;5097018;28;20034;-73
2023/07/23 01:28:57;;;;;;;3.53;2.78;;;17.20;54.40;;;;;;5115173;28;20020;-73
2023/07/23 01:31:22;;;;;;;5.25;3.03;;;17.20;54.70;;;;;;5097128;28;20047;-74
2023/07/23 01:33:49;;;;;;;3.63;3.05;;;17.20;54.80;;;;;;5115134;28;20491;-74
2023/07/23 01:36:16;;;;;;;4.25;2.95;;;17.10;55.10;;;;;;5096997;28;20111;-75
2023/07/23 01:38:41;;;;;;;3.78;3.17;;;17.10;54.90;;;;;;5114936;28;20536;-74
2023/07/23 01:41:07;;;;;;;3.88;3.05;;;17.10;55.20;;;;;;5114917;28;20027;-76
2023/07/23 01:43:33;;;;;;;3.85;3.05;;;17.10;55.10;;;;;;5114990;28;20153;-75
2023/07/23 01:45:58;;;;;;;6.13;2.88;;;17.10;55.10;;;;;;5115009;28;20058;-75
2023/07/23 01:48:25;;;;;;;3.08;2.67;;;17.10;55.20;;;;;;5114820;28;20035;-75
2023/07/23 01:50:51;;;;;;;3.70;3.00;;;17.00;55.30;;;;;;5114700;28;20036;-74
2023/07/23 01:53:16;;;;;;;2.80;2.40;;;17.00;55.20;;;;;;5096598;28;20026;-76
2023/07/23 01:55:42;;;;;;;3.50;2.72;;;17.00;55.30;;;;;;5096625;28;20020;-75
2023/07/23 01:58:07;;;;;;;2.85;2.58;;;17.00;55.30;;;;;;5114652;28;20035;-75
2023/07/23 02:00:33;;;;;;;2.92;2.63;;;17.00;55.40;;;;;;5114502;28;20027;-73
2023/07/23 02:02:59;;;;;;;2.80;2.38;;;17.00;55.50;;;;;;5096489;28;20036;-74
2023/07/23 02:05:25;;;;;;;4.20;2.65;;;16.90;55.50;;;;;;5096446;28;20050;-75
2023/07/23 02:07:50;;;;;;;3.88;2.65;;;17.00;55.60;;;;;;5096385;28;20077;-73
2023/07/23 02:10:20;;;;;;;3.67;2.63;;;17.00;55.70;;;;;;5096279;28;20020;-75
2023/07/23 02:12:46;;;;;;;3.15;2.78;;;17.00;55.60;;;;;;5096043;28;20035;-73
2023/07/23 02:15:12;;;;;;;4.10;3.03;;;17.00;55.60;;;;;;5114393;28;20482;-72
2023/07/23 02:17:37;;;;;;;2.72;2.47;;;17.00;55.50;;;;;;5114219;28;20049;-73
2023/07/23 02:20:04;;;;;;;3.60;2.70;;;17.00;55.60;;;;;;5114045;28;20027;-73
2023/07/23 02:22:30;;;;;;;4.30;2.97;;;17.00;55.60;;;;;;5114170;28;20020;-73
2023/07/23 02:24:55;;;;;;;3.00;2.63;;;17.10;55.60;;;;;;5114262;28;20081;-73
2023/07/23 02:27:21;;;;;;;3.13;2.63;;;17.00;55.60;;;;;;5095827;28;20051;-74
2023/07/23 02:29:47;;;;;;;4.65;2.60;;;17.10;55.60;;;;;;5114051;28;20054;-73
2023/07/23 02:32:12;;;;;;;3.72;2.53;;;17.00;55.60;;;;;;5113586;28;20035;-73
2023/07/23 02:34:38;;;;;;;4.30;2.65;;;17.00;55.70;;;;;;5113841;28;20015;-73
2023/07/23 02:37:04;;;;;;;3.20;2.65;;;16.90;56.00;;;;;;5113796;28;20027;-73
2023/07/23 02:39:30;;;;;;;3.88;2.67;;;16.90;56.00;;;;;;5113803;28;20031;-75
2023/07/23 02:41:56;;;;;;;5.57;2.85;;;16.90;56.30;;;;;;5113836;28;20106;-74
2023/07/23 02:44:21;;;;;;;4.35;2.60;;;16.90;56.10;;;;;;5095472;28;20506;-74
2023/07/23 02:46:47;;;;;;;5.18;2.67;;;16.90;56.30;;;;;;5113701;28;20030;-73
2023/07/23 02:49:12;;;;;;;3.50;2.47;;;16.90;56.30;;;;;;5113680;28;20380;-72
2023/07/23 02:51:38;;;;;;;3.05;2.75;;;16.90;56.30;;;;;;5113120;28;20441;-73
2023/07/23 02:54:03;;;;;;;6.22;2.72;;;16.80;56.30;;;;;;5113627;28;20021;-72
2023/07/23 02:56:29;;;;;;;3.67;2.83;;;16.80;56.70;;;;;;5095303;28;20035;-73
2023/07/23 02:58:55;;;;;;;3.25;2.95;;;16.80;56.60;;;;;;5095300;28;20038;-72
2023/07/23 03:01:20;;;;;;;3.15;2.80;;;16.80;56.70;;;;;;5113382;28;20024;-73
2023/07/23 03:03:47;;;;;;;5.03;2.60;;;16.80;56.60;;;;;;5113452;28;20383;-73
2023/07/23 03:06:16;;;;;;;2.88;2.42;;;16.80;56.60;;;;;;5113438;28;20069;-74
2023/07/23 03:08:42;;;;;;;3.22;2.92;;;16.80;56.60;;;;;;5113432;28;20554;-73
2023/07/23 03:11:07;;;;;;;4.20;2.85;;;16.80;57.50;;;;;;5113235;28;20123;-75
2023/07/23 03:13:33;;;;;;;3.80;2.60;;;16.80;56.90;;;;;;5095071;28;20019;-74
2023/07/23 03:15:58;;;;;;;2.65;2.45;;;16.70;57.10;;;;;;5113243;28;20031;-75
2023/07/23 03:18:24;;;;;;;3.55;2.50;;;16.70;57.20;;;;;;5113261;28;20026;-75
2023/07/23 03:20:50;;;;;;;3.90;2.50;;;16.60;57.30;;;;;;5113010;28;20098;-75
2023/07/23 03:23:16;;;;;;;5.25;3.13;;;16.70;57.40;;;;;;5113232;28;20502;-73
2023/07/23 03:25:41;;;;;;;3.28;2.65;;;16.70;57.30;;;;;;5094854;28;20110;-75
2023/07/23 03:28:07;;;;;;;6.82;2.55;;;16.60;57.40;;;;;;5113198;28;20024;-72
2023/07/23 03:30:32;;;;;;;4.10;2.60;;;16.60;57.30;;;;;;5113001;28;20156;-72
2023/07/23 03:32:58;;;;;;;3.72;2.80;;;16.60;57.30;;;;;;5113019;28;20440;-72
2023/07/23 03:35:23;;;;;;;4.07;2.97;;;16.60;57.50;;;;;;5113251;28;20450;-73
2023/07/23 03:37:49;;;;;;;4.00;2.70;;;16.60;57.50;;;;;;5113061;28;20395;-75
2023/07/23 03:40:15;;;;;;;4.97;3.00;;;16.60;57.50;;;;;;5114646;28;20047;-74
2023/07/23 03:42:41;;;;;;;3.03;2.40;;;16.60;57.80;;;;;;5095123;28;20020;-75
2023/07/23 03:45:07;;;;;;;3.22;2.75;;;16.60;57.80;;;;;;5113117;28;20024;-75
2023/07/23 03:47:32;;;;;;;3.50;2.78;;;16.60;57.80;;;;;;5113161;28;20046;-75
2023/07/23 03:49:59;;;;;;;4.80;2.42;;;16.60;57.80;;;;;;5112994;28;20023;-74
2023/07/23 03:52:24;;;;;;;3.92;2.45;;;16.60;57.70;;;;;;5112968;28;20028;-75
2023/07/23 03:54:50;;;;;;;3.67;2.70;;;16.70;57.80;;;;;;5113020;28;20077;-74
2023/07/23 03:57:15;;;;;;;4.35;2.78;;;16.70;57.70;;;;;;5113003;28;20032;-75
2023/07/23 03:59:43;;;;;;;3.67;2.78;;;16.70;57.50;;;;;;5094675;28;20020;-73
2023/07/23 04:02:09;;;;;;;2.90;2.53;;;16.70;57.60;;;;;;5112973;28;20122;-75
2023/07/23 04:04:36;;;;;;;3.58;2.50;;;16.80;57.40;;;;;;5115754;28;20478;-76
2023/07/23 04:07:03;;;;;;;3.85;2.30;;;16.90;57.30;;;;;;5116984;28;20114;-75
2023/07/23 04:09:29;;;;;;;3.10;2.60;;;16.90;57.10;;;;;;5116905;28;20035;-76
2023/07/23 04:11:56;;;;;;;3.25;2.72;;;16.90;57.10;;;;;;5116852;28;20032;-74
2023/07/23 04:14:21;;;;;;;4.05;2.55;;;16.90;57.00;;;;;;5116697;28;20016;-75
2023/07/23 04:16:47;;;;;;;4.25;2.50;;;16.90;57.30;;;;;;5116630;28;20038;-75
2023/07/23 04:19:13;;;;;;;3.45;2.33;;;16.90;57.40;;;;;;5116712;28;20141;-76
2023/07/23 04:21:39;;;;;;;4.18;2.85;;;16.90;57.30;;;;;;5116652;28;20139;-76
2023/07/23 04:24:05;;;;;;;2.58;2.30;;;16.90;57.10;;;;;;5116661;28;20036;-75
2023/07/23 04:26:31;;;;;;;3.63;2.65;;;16.90;57.10;;;;;;5116489;28;20022;-74
2023/07/23 04:28:58;;;;;;;3.78;2.42;;;17.00;57.00;;;;;;5098083;28;20027;-74
2023/07/23 04:31:24;;;;;;;3.33;2.28;;;17.00;56.80;;;;;;5116376;28;20023;-76
2023/07/23 04:33:50;;;;;;;2.80;2.55;;;17.10;56.80;;;;;;5116514;28;20035;-75
2023/07/23 04:36:16;;;;;;;2.30;2.10;;;17.20;56.70;;;;;;5097514;28;20045;-75
2023/07/23 04:38:43;;;;;;;3.13;2.50;;;17.20;56.60;;;;;;5098161;28;20024;-75
2023/07/23 04:41:09;;;;;;;5.90;2.70;;;17.20;56.50;;;;;;5116158;28;20019;-75
2023/07/23 04:43:36;;;;;;;3.85;2.92;;;17.30;56.40;;;;;;5116321;28;20028;-75
2023/07/23 04:46:04;;;;;;;3.88;3.00;;;17.30;56.20;;;;;;5097685;28;20024;-73
2023/07/23 04:48:30;;;;;;;2.95;2.65;;;17.40;56.20;;;;;;5116015;28;20023;-72
2023/07/23 04:50:56;;;;;;;4.35;2.70;;;17.40;56.10;;;;;;5098108;28;20027;-73
2023/07/23 04:53:23;;;;;;;2.88;2.35;;;17.50;56.10;;;;;;5097848;28;20391;-72
2023/07/23 04:55:56;;;;;;;3.42;2.33;;;17.50;56.10;;;;;;5097540;28;20023;-73
2023/07/23 04:58:23;;;;;;;3.72;2.67;;;17.60;56.00;;;;;;5098073;28;20178;-76
2023/07/23 05:00:48;;;;;;;5.95;2.67;;;17.70;56.00;;;;;;5097853;28;20118;-75
2023/07/23 05:03:14;;;;;;;2.72;2.50;;;17.80;55.90;;;;;;5097647;28;20051;-74
2023/07/23 05:05:43;;;;;;;3.90;2.72;;;17.80;55.60;;;;;;5097477;28;20032;-73
2023/07/23 05:08:09;;;;;;;2.58;2.38;;;17.90;55.50;;;;;;5097799;28;20024;-75
2023/07/23 05:10:35;;;;;;;2.63;2.17;;;18.00;55.30;;;;;;5097679;28;20371;-76
2023/07/23 05:13:00;;;;;;;2.40;2.20;;;18.10;55.10;;;;;;5097436;28;20035;-75
2023/07/23 05:15:26;;;;;;;3.25;2.45;;;18.20;54.90;;;;;;5097150;28;20024;-76
2023/07/23 05:17:52;;;;;;;3.45;2.55;;;18.30;55.20;;;;;;5097460;28;20051;-75
2023/07/23 05:20:18;;;;;;;2.67;2.42;;;18.40;54.20;;;;;;5097509;28;20019;-76
2023/07/23 05:22:44;;;;;;;5.40;2.70;;;18.50;54.40;;;;;;5097676;28;20039;-76
2023/07/23 05:25:09;;;;;;;4.10;2.97;;;18.60;54.90;;;;;;5097157;28;20070;-76
2023/07/23 05:27:35;;;;;;;4.18;2.60;;;18.70;53.90;;;;;;5097368;28;20027;-75
2023/07/23 05:30:01;;;;;;;2.70;2.33;;;18.80;53.60;;;;;;5097440;28;20031;-76
2023/07/23 05:32:27;;;;;;;5.75;2.85;;;18.90;53.30;;;;;;5097294;28;20035;-75
2023/07/23 05:34:55;;;;;;;2.90;2.60;;;19.00;53.10;;;;;;5096965;28;20027;-76
2023/07/23 05:37:21;;;;;;;3.38;2.83;;;19.10;53.30;;;;;;5096942;28;20139;-75
2023/07/23 05:39:48;;;;;;;2.63;2.42;;;19.20;52.70;;;;;;5097278;28;20487;-75
2023/07/23 05:42:13;;;;;;;3.25;2.45;;;19.40;51.60;;;;;;5097163;28;20028;-76
2023/07/23 05:44:39;;;;;;;3.38;2.78;;;19.50;51.60;;;;;;5097217;28;20035;-75
2023/07/23 05:47:05;;;;;;;2.70;2.30;;;19.60;51.50;;;;;;5097131;28;20042;-76
2023/07/23 05:49:30;;;;;;;3.45;2.80;;;19.80;51.40;;;;;;5097134;28;20058;-76
2023/07/23 05:51:58;;;;;;;3.75;2.25;;;19.90;51.30;;;;;;5096638;28;20507;-76
2023/07/23 05:54:24;;;;;;;5.57;2.03;;;20.20;50.90;;;;;;5096921;28;20073;-76
2023/07/23 05:56:50;;;;;;;3.83;2.38;;;20.40;45.40;;;;;;5096699;28;20096;-76
2023/07/23 05:59:16;;;;;;;2.42;2.20;;;20.60;45.40;;;;;;5114649;28;20459;-76
2023/07/23 06:01:42;;;;;;;2.28;1.98;;;20.70;43.50;;;;;;5096374;28;20370;-74
2023/07/23 06:04:07;;;;;;;4.05;2.33;;;21.00;42.80;;;;;;5096287;28;20110;-72
2023/07/23 06:06:33;;;;;;;3.13;1.90;;;21.00;41.80;;;;;;5096280;28;20506;-73
2023/07/23 06:08:59;;;;;;;2.83;2.28;;;21.00;42.10;;;;;;5096539;28;20463;-73
2023/07/23 06:11:24;;;;;;;3.85;2.17;;;21.00;41.70;;;;;;5096276;28;20028;-72
2023/07/23 06:13:50;;;;;;;3.08;2.28;;;21.00;41.80;;;;;;5096420;28;20020;-74
2023/07/23 06:16:15;;;;;;;5.00;2.20;;;21.00;42.10;;;;;;5096275;28;20024;-73
2023/07/23 06:18:41;;;;;;;4.25;2.10;;;21.00;42.20;;;;;;5096072;28;20467;-73
2023/07/23 06:21:06;;;;;;;3.10;2.30;;;21.10;42.50;;;;;;5095923;28;20051;-73
2023/07/23 06:23:33;;;;;;;5.15;2.30;;;21.00;42.70;;;;;;5096240;28;20042;-74
2023/07/23 06:25:59;;;;;;;3.25;2.17;;;21.00;42.60;;;;;;5095587;28;20083;-74
2023/07/23 06:28:25;;;;;;;3.97;2.15;;;21.00;43.10;;;;;;5096102;28;20055;-74
2023/07/23 06:30:51;;;;;;;4.20;2.03;;;21.00;43.30;;;;;;5096109;28;20020;-75
2023/07/23 06:33:17;;;;;;;3.00;2.47;;;21.10;43.00;;;;;;5095895;28;20024;-75
2023/07/23 06:35:43;;;;;;;3.70;2.20;;;21.10;43.00;;;;;;5095672;28;20031;-75
2023/07/23 06:38:09;;;;;;;1.92;1.83;;;21.10;43.40;;;;;;5096039;28;20019;-75
2023/07/23 06:40:35;;;;;;;3.33;2.45;;;21.00;43.10;;;;;;5095793;28;20027;-74
2023/07/23 06:43:01;;;;;;;5.72;2.40;;;21.00;43.50;;;;;;5095898;28;20051;-74
2023/07/23 06:45:27;;;;;;;4.03;2.40;;;21.00;43.70;;;;;;5095484;28;20490;-74
2023/07/23 06:47:52;;;;;;;2.92;2.33;;;21.00;43.70;;;;;;5095430;28;20020;-76
2023/07/23 06:50:18;;;;;;;1.85;1.75;;;21.00;44.00;;;;;;5095449;28;20464;-76
2023/07/23 06:52:45;;;;;;;3.00;2.20;;;21.10;44.10;;;;;;5095770;28;20101;-77
2023/07/23 06:55:11;;;;;;;3.28;2.67;;;21.10;44.20;;;;;;5095637;28;20434;-74
2023/07/23 06:57:38;;;;;;;5.07;2.60;;;21.10;44.50;;;;;;5095539;28;20059;-76
2023/07/23 07:00:08;;;;;;;3.28;2.58;;;21.00;44.60;;;;;;5095204;28;20020;-79
2023/07/23 07:02:34;;;;;;;5.53;2.50;;;20.90;45.00;;;;;;5095615;28;20065;-79
2023/07/23 07:05:00;;;;;;;5.78;2.08;;;21.00;45.00;;;;;;5095580;28;20028;-77
2023/07/23 07:07:27;;;;;;;3.80;2.90;;;21.20;44.70;;;;;;5095787;28;20047;-83
2023/07/23 07:09:53;;;;;;;3.97;2.42;;;21.30;44.90;;;;;;5095651;28;20028;-85
2023/07/23 07:12:19;;;;;;;2.97;2.30;;;21.40;44.50;;;;;;5095503;28;20038;-74
2023/07/23 07:14:44;;;;;;;3.33;2.40;;;21.40;44.80;;;;;;5095544;28;20015;-77
2023/07/23 07:17:10;;;;;;;2.80;2.20;;;21.40;45.10;;;;;;5095485;28;20376;-75
2023/07/23 07:19:35;;;;;;;3.45;2.60;;;21.60;44.50;;;;;;5094863;28;20035;-73
2023/07/23 07:22:01;;;;;;;4.55;2.40;;;21.60;45.10;;;;;;5095083;28;20108;-77
2023/07/23 07:24:27;;;;;;;3.17;2.15;;;21.80;44.40;;;;;;5095015;28;20406;-75
2023/07/23 07:26:53;;;;;;;4.38;2.40;;;21.80;44.30;;;;;;5095168;28;20066;-73
2023/07/23 07:29:18;;;;;;;2.60;1.90;;;21.90;44.50;;;;;;5095180;28;20047;-73
2023/07/23 07:31:45;;;;;;;6.25;2.72;;;22.20;44.50;;;;;;5095076;28;20032;-73
2023/07/23 07:34:11;;;;;;;3.55;1.90;;;22.40;44.00;;;;;;5094793;28;20439;-73
2023/07/23 07:36:38;;;;;;;3.47;2.05;;;22.50;43.60;;;;;;5095107;28;20023;-74
2023/07/23 07:39:04;;;;;;;3.35;2.08;;;22.40;43.40;;;;;;5098679;28;20035;-72
2023/07/23 07:41:30;;;;;;;2.40;2.17;;;22.00;43.90;;;;;;5099240;28;20026;-75
2023/07/23 07:43:55;;;;;;;5.05;2.20;;;21.90;44.80;;;;;;5099087;28;20019;-73
2023/07/23 07:46:21;;;;;;;2.38;2.10;;;21.90;45.40;;;;;;5098985;28;20026;-73
2023/07/23 07:48:47;;;;;;;3.17;2.50;;;22.00;46.20;;;;;;5099286;28;20027;-73
2023/07/23 07:51:13;;;;;;;4.65;3.00;;;22.20;44.80;;;;;;5099085;28;20024;-73
2023/07/23 07:53:38;;;;;;;4.00;2.50;;;22.30;44.80;;;;;;5098908;28;20153;-73
2023/07/23 07:56:05;;;;;;;4.40;2.38;;;22.30;44.90;;;;;;5098859;28;20077;-75
2023/07/23 07:58:30;;;;;;;6.18;2.42;;;22.10;44.90;;;;;;5099143;28;20028;-75
2023/07/23 08:00:57;;;;;;;3.17;2.55;;;22.00;45.40;;;;;;5099145;28;20019;-75
2023/07/23 08:03:24;;;;;;;4.18;2.20;;;22.10;45.40;;;;;;5099027;28;20472;-75
2023/07/23 08:05:50;;;;;;;4.43;2.35;;;22.20;45.50;;;;;;5098523;28;20028;-75
2023/07/23 08:08:22;;;;;;;3.25;2.15;;;22.40;44.70;;;;;;5098586;28;20031;-75
2023/07/23 08:10:48;;;;;;;4.45;2.10;;;22.50;44.50;;;;;;5098264;28;20016;-75
2023/07/23 08:13:14;;;;;;;2.45;1.90;;;22.60;45.10;;;;;;5098623;28;20482;-76
2023/07/23 08:15:40;;;;;;;3.72;2.25;;;22.70;45.30;;;;;;5098734;28;20024;-76
2023/07/23 08:18:07;;;;;;;3.55;2.00;;;22.60;44.80;;;;;;5098534;28;20024;-76
2023/07/23 08:20:34;;;;;;;3.33;2.17;;;22.60;44.60;;;;;;5098486;28;20071;-78
2023/07/23 08:23:01;;;;;;;3.42;1.92;;;22.70;45.00;;;;;;5116140;28;20031;-78
2023/07/23 08:25:29;;;;;;;3.92;2.13;;;22.80;45.70;;;;;;5097607;28;20085;-77
2023/07/23 08:28:00;;;;;;;2.17;1.58;;;22.80;44.90;;;;;;5098237;28;20023;-77
2023/07/23 08:30:28;;;;;;;2.58;1.92;;;22.90;44.30;;;;;;5079099;28;20170;-76
2023/07/23 08:32:55;;;;;;;4.45;2.28;;;22.80;44.50;;;;;;5098254;28;20032;-78
2023/07/23 08:35:24;;;;;;;3.88;2.00;;;23.00;44.30;;;;;;5097760;28;20024;-77
2023/07/23 08:37:51;;;;;;;2.15;1.88;;;22.90;44.20;;;;;;5129428;27;20031;-81
2023/07/23 08:40:19;;;;;;;1.98;1.58;;;22.80;44.70;;;;;;5098197;28;20020;-82
2023/07/23 08:42:53;;;;;;;2.38;1.70;;;22.80;44.80;;;;;;5097097;28;20035;-82
2023/07/23 08:45:19;;;;;;;3.80;2.50;;;22.70;44.30;;;;;;5098134;28;20059;-81
2023/07/23 08:47:49;;;;;;;3.08;2.10;;;22.80;45.00;;;;;;5098199;28;20043;-80
2023/07/23 08:50:15;;;;;;;2.63;1.90;;;22.80;44.70;;;;;;5096761;28;20358;-81
2023/07/23 08:52:43;;;;;;;3.08;2.00;;;22.70;44.70;;;;;;5097546;28;20046;-81
2023/07/23 08:55:10;;;;;;;2.72;2.25;;;22.70;45.80;;;;;;5094859;28;20027;-78
2023/07/23 08:57:36;;;;;;;3.65;2.15;;;22.70;45.10;;;;;;5097902;28;20019;-81
2023/07/23 09:00:02;;;;;;;2.72;1.65;;;22.80;44.90;;;;;;5097822;28;20023;-78
2023/07/23 09:02:28;;;;;;;3.80;2.33;;;22.90;44.80;;;;;;5097080;28;20115;-79
2023/07/23 09:04:54;;;;;;;2.97;1.60;;;23.10;44.40;;;;;;5097420;28;20379;-81
2023/07/23 09:07:21;;;;;;;5.10;2.10;;;23.10;44.20;;;;;;5098181;28;20028;-82
2023/07/23 09:09:50;;;;;;;4.25;1.92;;;23.00;44.40;;;;;;5096977;28;20532;-81
2023/07/23 09:12:16;;;;;;;3.58;2.03;;;23.20;44.00;;;;;;5097245;28;20138;-80
2023/07/23 09:14:44;;;;;;;3.83;2.00;;;23.20;43.80;;;;;;5097620;28;20028;-79
2023/07/23 09:17:20;;;;;;;2.53;2.15;;;23.30;43.50;;;;;;5097555;28;20123;-78
2023/07/23 09:19:51;;;;;;;4.43;1.70;;;23.40;43.80;;;;;;5080723;28;20023;-79
2023/07/23 09:22:18;;;;;;;7.00;5.35;;;23.70;43.00;;;;;;5090035;28;20044;-77
2023/07/23 09:24:44;;;;;;;3.30;1.92;;;23.60;42.90;;;;;;5094418;28;20028;-78
2023/07/23 09:27:12;;;;;;;3.42;1.80;;;23.60;42.40;;;;;;5076915;28;20031;-78
2023/07/23 09:29:43;;;;;;;2.22;2.03;;;23.70;43.00;;;;;;5077292;28;20016;-78
2023/07/23 09:32:22;;;;;;;5.10;2.05;;;23.80;41.80;;;;;;5058468;28;20032;-81
2023/07/23 09:34:48;;;;;;;3.40;2.10;;;23.80;41.40;;;;;;5090986;28;20016;-82
2023/07/23 09:37:13;;;;;;;4.53;2.13;;;23.80;41.80;;;;;;5093373;28;20115;-80
2023/07/23 09:39:39;;;;;;;3.60;2.00;;;23.80;41.90;;;;;;5093999;28;20595;-83
2023/07/23 09:42:05;;;;;;;3.17;2.10;;;23.80;41.60;;;;;;5094160;28;20048;-82
2023/07/23 09:44:30;;;;;;;3.17;1.65;;;23.70;41.10;;;;;;5093957;28;20363;-85
2023/07/23 09:46:58;;;;;;;4.15;1.90;;;23.60;41.80;;;;;;5093358;28;20020;-77
2023/07/23 09:49:29;;;;;;;3.22;1.80;;;23.70;42.20;;;;;;5093171;28;20020;-76
2023/07/23 09:51:54;;;;;;;3.30;2.08;;;23.70;41.30;;;;;;5093051;28;20028;-80
2023/07/23 09:54:21;;;;;;;2.50;2.03;;;23.70;41.70;;;;;;5092819;28;20020;-76
2023/07/23 09:56:49;;;;;;;3.35;1.98;;;23.90;40.50;;;;;;5093085;28;20020;-77
2023/07/23 09:59:15;;;;;;;4.00;2.22;;;23.80;41.30;;;;;;5092918;28;20103;-76
2023/07/23 10:01:40;;;;;;;3.92;2.38;;;23.80;40.70;;;;;;5075333;28;20501;-76
2023/07/23 10:04:09;;;;;;;4.70;2.20;;;24.00;40.10;;;;;;5093023;28;20112;-76
2023/07/23 10:06:34;;;;;;;3.35;2.22;;;24.00;39.90;;;;;;5092480;28;20161;-76
2023/07/23 10:09:02;;;;;;;4.28;2.30;;;24.00;39.70;;;;;;5092544;28;20371;-87
2023/07/23 10:11:28;;;;;;;3.25;2.17;;;23.90;40.40;;;;;;5092740;28;20024;-76
2023/07/23 10:13:54;;;;;;;4.53;2.78;;;24.00;39.20;;;;;;5092680;28;20024;-75
2023/07/23 10:16:29;;;;;;;5.40;3.00;;;24.00;39.20;;;;;;5092660;28;20693;-76
2023/07/23 10:18:57;;;;;;;6.05;3.22;;;24.00;39.00;;;;;;5090841;28;20027;-75
2023/07/23 10:21:23;;;;;;;6.78;3.33;;;23.90;38.80;;;;;;5092546;28;20196;-79
2023/07/23 10:23:57;;;;;;;4.28;3.30;;;23.70;38.90;;;;;;5089019;28;20028;-75
2023/07/23 10:26:25;;;;;;;5.40;3.22;;;23.70;39.30;;;;;;5090113;28;20164;-76
2023/07/23 10:28:57;;;;;;;4.00;3.05;;;23.90;38.80;;;;;;5091878;28;20391;-75
2023/07/23 10:31:28;;;;;;;5.10;3.30;;;24.30;38.30;;;;;;5090015;28;20059;-76
2023/07/23 10:33:54;;;;;;;5.70;3.03;;;24.30;37.80;;;;;;5092224;28;20115;-76
2023/07/23 10:36:22;;;;;;;4.00;3.22;;;24.10;38.20;;;;;;5089626;28;20035;-76
2023/07/23 10:39:15;;;;;;;4.63;3.30;;;24.30;37.70;;;;;;5092198;28;20090;-76
2023/07/23 10:41:49;;;;;;;4.30;3.33;;;24.70;37.50;;;;;;5089593;28;20058;-76
2023/07/23 10:44:22;;;;;;;4.00;3.60;;;24.60;36.70;;;;;;5092109;28;20055;-77
2023/07/23 10:46:48;;;;;;;6.10;3.65;;;24.60;36.50;;;;;;5091834;28;20061;-77
2023/07/23 10:49:23;;;;;;;5.35;3.88;;;24.70;36.30;;;;;;5091882;28;20032;-76
2023/07/23 10:51:52;;;;;;;5.65;4.07;;;24.80;36.30;;;;;;5090465;28;20051;-77
2023/07/23 10:54:21;;;;;;;6.47;3.60;;;24.80;35.30;;;;;;5092206;28;20476;-78
2023/07/23 10:56:50;;;;;;;6.28;4.10;;;25.10;35.40;;;;;;5092500;28;20119;-77
2023/07/23 10:59:19;;;;;;;9.70;4.55;;;25.30;34.60;;;;;;5092126;28;20118;-77
2023/07/23 11:01:48;;;;;;;6.32;4.95;;;25.40;33.10;;;;;;5092085;28;20073;-77
2023/07/23 11:04:14;;;;;;;6.22;4.50;;;25.40;32.40;;;;;;5091955;28;20051;-77
2023/07/23 11:07:00;;;;;;;6.85;4.70;;;25.50;32.20;;;;;;5091723;28;20035;-77
2023/07/23 11:09:43;;;;;;;;;;;25.40;32.80;;;;;;5091903;28;20020;-77
2023/07/23 11:12:10;;;;;;;14.55;5.00;;;25.60;32.00;;;;;;5127152;27;19912;-78
2023/07/23 11:14:35;;;;;;;4.93;3.65;;;26.00;32.50;;;;;;5092134;28;20020;-76
2023/07/23 11:17:02;;;;;;;6.03;4.45;;;26.30;31.60;;;;;;5091707;28;20020;-76
2023/07/23 11:19:30;;;;;;;6.65;3.83;;;26.20;31.20;;;;;;5088972;28;20042;-76
2023/07/23 11:22:01;;;;;;;6.72;4.30;;;26.40;31.30;;;;;;5091073;28;20047;-75
2023/07/23 11:24:29;;;;;;;8.13;4.75;;;26.50;30.70;;;;;;5074699;28;20047;-76
2023/07/23 11:27:00;;;;;;;5.85;3.92;;;26.50;30.60;;;;;;5091221;28;20463;-76
2023/07/23 11:29:25;;;;;;;6.53;4.50;;;26.50;30.40;;;;;;5091153;28;20435;-75
2023/07/23 11:31:52;;;;;;;7.88;5.38;;;26.60;30.50;;;;;;5091557;28;20067;-76
2023/07/23 11:34:18;;;;;;;6.45;4.65;;;26.90;28.00;;;;;;5091993;28;20017;-76
2023/07/23 11:36:44;;;;;;;5.90;3.88;;;26.90;28.50;;;;;;5091866;28;20483;-75
2023/07/23 11:39:09;;;;;;;5.65;4.45;;;26.90;29.00;;;;;;5092980;28;20020;-76
2023/07/23 11:41:38;;;;;;;5.15;3.88;;;26.90;29.50;;;;;;5092973;28;20024;-74
2023/07/23 11:44:04;;;;;;;5.90;4.28;;;27.10;29.30;;;;;;5092744;28;20027;-80
2023/07/23 11:46:38;;;;;;;7.80;4.30;;;26.80;29.40;;;;;;5093061;28;20020;-83
2023/07/23 11:49:14;;;;;;;5.53;4.32;;;26.60;29.30;;;;;;5092840;28;20021;-79
2023/07/23 11:51:40;;;;;;;7.22;4.55;;;26.80;29.80;;;;;;5092723;28;20436;-81
2023/07/23 11:54:11;;;;;;;28.17;5.25;;;26.80;29.20;;;;;;5092843;28;20081;-74
2023/07/23 11:56:38;;;;;;;5.50;4.13;;;26.70;28.60;;;;;;5092910;28;20020;-83
2023/07/23 11:59:09;;;;;;;6.63;4.43;;;26.50;28.70;;;;;;5092660;28;20043;-80
2023/07/23 12:01:37;;;;;;;6.97;4.70;;;26.40;29.50;;;;;;5092769;28;20386;-79
2023/07/23 12:04:04;;;;;;;4.30;3.60;;;26.40;29.80;;;;;;5092668;28;20028;-81
2023/07/23 12:06:34;;;;;;;6.35;4.15;;;26.40;30.20;;;;;;5092718;28;20067;-80
2023/07/23 12:09:03;;;;;;;7.43;4.32;;;26.40;30.10;;;;;;5092760;28;20480;-77
2023/07/23 12:11:31;;;;;;;5.70;4.22;;;26.60;30.10;;;;;;5092639;28;20119;-84
2023/07/23 12:13:57;;;;;;;4.88;4.05;;;26.60;29.20;;;;;;5092708;28;20088;-82
2023/07/23 12:16:40;;;;;;;5.75;4.25;;;26.60;28.70;;;;;;5091246;28;20028;-82
2023/07/23 12:19:07;;;;;;;6.88;4.57;;;26.30;29.20;;;;;;5092782;28;20020;-73
2023/07/23 12:21:37;;;;;;;6.70;3.83;;;26.20;29.70;;;;;;5102651;28;20050;-73
2023/07/23 12:24:22;;;;;;;5.97;4.43;;;26.30;28.90;;;;;;5113057;28;20437;-73
2023/07/23 12:26:53;;;;;;;5.55;4.28;;;26.10;28.90;;;;;;5116837;28;20054;-85
2023/07/23 12:29:20;;;;;;;5.57;3.80;;;26.00;29.40;;;;;;5116848;28;20383;-83
2023/07/23 12:31:48;;;;;;;5.93;4.30;;;25.90;29.90;;;;;;5116546;28;20111;-85
2023/07/23 12:34:15;;;;;;;8.25;4.00;;;26.00;30.30;;;;;;5098266;28;20375;-78
2023/07/23 12:36:41;;;;;;;5.45;4.07;;;26.00;30.00;;;;;;5116536;28;20023;-77
2023/07/23 12:39:09;;;;;;;7.28;4.43;;;25.80;29.80;;;;;;5116061;28;20028;-74
2023/07/23 12:41:35;;;;;;;6.65;4.18;;;25.60;30.50;;;;;;5116048;28;20044;-72
2023/07/23 12:44:04;;;;;;;6.07;4.35;;;25.60;30.50;;;;;;5115790;28;20474;-73
2023/07/23 12:46:30;;;;;;;6.15;3.95;;;25.70;30.50;;;;;;5115818;28;20086;-73